createdAt,value
2022-12-03T00:00:34.504Z,100572.50
2022-12-03T00:03:05.849Z,100570.94
2022-12-03T00:05:35.543Z,100570.63
2022-12-03T00:08:05.172Z,100573.91
2022-12-03T00:10:35.051Z,100574.75
2022-12-03T00:13:09.739Z,100571.84
2022-12-03T00:15:39.770Z,100571.00
2022-12-03T00:18:10.545Z,100570.78
2022-12-03T00:20:40.069Z,100573.41
2022-12-03T00:23:09.571Z,100574.38
2022-12-03T00:25:39.124Z,100573.50
2022-12-03T00:28:08.814Z,100573.50
2022-12-03T00:30:38.255Z,100571.72
2022-12-03T00:33:07.756Z,100579.50
2022-12-03T00:35:38.617Z,100577.22
2022-12-03T00:38:08.139Z,100585.50
2022-12-03T00:40:37.612Z,100578.41
2022-12-03T00:43:07.320Z,100593.53
2022-12-03T00:45:36.862Z,100587.38
2022-12-03T00:48:06.546Z,100582.84
2022-12-03T00:50:36.078Z,100583.78
2022-12-03T00:53:07.012Z,100590.97
2022-12-03T00:55:36.591Z,100590.72
2022-12-03T00:58:08.384Z,100588.31
2022-12-03T01:00:38.158Z,100591.72
2022-12-03T01:03:07.726Z,100592.38
2022-12-03T01:05:37.181Z,100590.72
2022-12-03T01:08:08.273Z,100590.88
2022-12-03T01:10:37.838Z,100597.75
2022-12-03T01:13:07.940Z,100593.28
2022-12-03T01:15:38.325Z,100594.09
2022-12-03T01:18:08.099Z,100594.78
2022-12-03T01:20:38.654Z,100599.13
2022-12-03T01:23:09.548Z,100599.31
2022-12-03T01:25:39.074Z,100595.16
2022-12-03T01:28:08.577Z,100602.78
2022-12-03T01:30:59.129Z,100602.72
2022-12-03T01:33:27.725Z,100599.38
2022-12-03T01:35:57.192Z,100608.09
2022-12-03T01:38:28.101Z,100600.06
2022-12-03T01:40:57.801Z,100600.06
2022-12-03T01:43:27.484Z,100591.34
2022-12-03T01:45:57.064Z,100590.47
2022-12-03T01:48:26.530Z,100601.94
2022-12-03T01:50:56.067Z,100590.47
2022-12-03T01:53:25.633Z,100592.28
2022-12-03T01:55:56.584Z,100600.31
2022-12-03T01:58:27.654Z,100604.69
2022-12-03T02:00:57.964Z,100597.56
2022-12-03T02:03:27.683Z,100607.25
2022-12-03T02:05:57.998Z,100599.06
2022-12-03T02:08:28.137Z,100604.44
2022-12-03T02:10:59.976Z,100602.78
2022-12-03T02:13:30.357Z,100606.06
2022-12-03T02:16:00.718Z,100595.47
2022-12-03T02:18:30.489Z,100602.63
2022-12-03T02:21:04.086Z,100608.66
2022-12-03T02:23:36.736Z,100615.47
2022-12-03T02:26:16.658Z,100616.44
2022-12-03T02:28:46.216Z,100618.19
2022-12-03T02:31:15.945Z,100619.06
2022-12-03T02:33:45.709Z,100621.72
2022-12-03T02:36:15.183Z,100618.28
2022-12-03T02:38:45.828Z,100624.47
2022-12-03T02:41:33.015Z,100626.03
2022-12-03T02:44:02.840Z,100628.97
2022-12-03T02:46:32.662Z,100630.69
2022-12-03T02:49:03.127Z,100629.69
2022-12-03T02:51:33.115Z,100630.69
2022-12-03T02:54:03.564Z,100631.44
2022-12-03T02:56:34.600Z,100628.13
2022-12-03T02:59:06.497Z,100634.19
2022-12-03T03:01:36.169Z,100637.88
2022-12-03T03:04:06.884Z,100639.56
2022-12-03T03:06:36.468Z,100637.78
2022-12-03T03:09:05.989Z,100639.41
2022-12-03T03:11:37.206Z,100634.56
2022-12-03T03:14:07.282Z,100638.16
2022-12-03T03:16:37.382Z,100637.31
2022-12-03T03:19:07.507Z,100630.91
2022-12-03T03:21:37.020Z,100637.22
2022-12-03T03:24:06.963Z,100628.34
2022-12-03T03:26:38.011Z,100626.38
2022-12-03T03:29:07.589Z,100631.16
2022-12-03T03:31:37.437Z,100637.31
2022-12-03T03:34:07.167Z,100635.22
2022-12-03T03:36:36.912Z,100648.28
2022-12-03T03:39:06.730Z,100642.13
2022-12-03T03:41:36.813Z,100641.44
2022-12-03T03:44:09.238Z,100644.09
2022-12-03T03:46:39.636Z,100638.16
2022-12-03T03:49:10.528Z,100643.44
2022-12-03T03:51:40.079Z,100645.41
2022-12-03T03:54:09.793Z,100641.50
2022-12-03T03:56:39.435Z,100634.81
2022-12-03T03:59:10.428Z,100645.31
2022-12-03T04:01:40.051Z,100642.69
2022-12-03T04:04:19.692Z,100641.88
2022-12-03T04:06:51.675Z,100643.00
2022-12-03T04:09:21.219Z,100648.06
2022-12-03T04:12:09.873Z,100646.09
2022-12-03T04:14:41.231Z,100640.72
2022-12-03T04:17:11.259Z,100637.38
2022-12-03T04:19:40.752Z,100650.78
2022-12-03T04:22:27.534Z,100651.47
2022-12-03T04:25:17.292Z,100651.72
2022-12-03T04:28:04.468Z,100654.50
2022-12-03T04:30:35.427Z,100661.69
2022-12-03T04:33:21.671Z,100668.75
2022-12-03T04:35:51.409Z,100670.16
2022-12-03T04:38:20.999Z,100674.69
2022-12-03T04:41:04.146Z,100676.25
2022-12-03T04:43:35.103Z,100687.94
2022-12-03T04:46:06.226Z,100676.19
2022-12-03T04:48:35.985Z,100675.38
2022-12-03T04:51:05.495Z,100675.69
2022-12-03T04:53:36.335Z,100673.34
2022-12-03T04:56:06.228Z,100677.69
2022-12-03T04:58:35.834Z,100680.50
2022-12-03T05:01:06.760Z,100676.16
2022-12-03T05:03:36.464Z,100677.84
2022-12-03T05:06:06.135Z,100668.06
2022-12-03T05:08:35.714Z,100680.34
2022-12-03T05:11:05.257Z,100685.09
2022-12-03T05:13:35.339Z,100679.72
2022-12-03T05:16:07.092Z,100681.56
2022-12-03T05:18:36.626Z,100694.81
2022-12-03T05:21:06.209Z,100705.31
2022-12-03T05:23:35.689Z,100694.88
2022-12-03T05:26:05.369Z,100697.78
2022-12-03T05:28:35.041Z,100699.66
2022-12-03T05:31:06.293Z,100696.69
2022-12-03T05:33:39.581Z,100704.94
2022-12-03T05:36:13.595Z,100704.63
2022-12-03T05:38:43.092Z,100706.63
2022-12-03T05:41:29.790Z,100698.50
2022-12-03T05:43:59.332Z,100697.63
2022-12-03T05:46:30.463Z,100691.06
2022-12-03T05:49:00.013Z,100705.94
2022-12-03T05:51:29.737Z,100696.19
2022-12-03T05:53:59.289Z,100698.69
2022-12-03T05:56:28.772Z,100699.56
2022-12-03T05:58:58.262Z,100697.47
2022-12-03T06:01:28.001Z,100698.50
2022-12-03T06:03:59.305Z,100709.09
2022-12-03T06:06:28.986Z,100703.63
2022-12-03T06:08:58.477Z,100708.19
2022-12-03T06:11:29.886Z,100702.06
2022-12-03T06:13:59.641Z,100711.66
2022-12-03T06:16:29.486Z,100718.53
2022-12-03T06:19:00.531Z,100720.06
2022-12-03T06:21:30.241Z,100720.22
2022-12-03T06:24:01.340Z,100726.25
2022-12-03T06:26:31.292Z,100727.81
2022-12-03T06:29:01.368Z,100720.38
2022-12-03T06:31:31.240Z,100726.31
2022-12-03T06:34:02.203Z,100732.94
2022-12-03T06:36:31.917Z,100729.22
2022-12-03T06:39:01.442Z,100734.38
2022-12-03T06:41:30.956Z,100738.63
2022-12-03T06:44:00.483Z,100746.66
2022-12-03T06:46:30.282Z,100743.38
2022-12-03T06:49:00.001Z,100747.69
2022-12-03T06:51:30.863Z,100748.16
2022-12-03T06:54:00.297Z,100748.00
2022-12-03T06:56:35.793Z,100745.34
2022-12-03T06:59:07.589Z,100750.53
2022-12-03T07:01:37.314Z,100747.53
2022-12-03T07:04:06.988Z,100749.88
2022-12-03T07:06:37.896Z,100760.47
2022-12-03T07:09:07.569Z,100753.44
2022-12-03T07:11:41.016Z,100756.59
2022-12-03T07:14:12.191Z,100757.06
2022-12-03T07:16:43.495Z,100757.75
2022-12-03T07:19:13.600Z,100762.22
2022-12-03T07:21:44.499Z,100759.38
2022-12-03T07:24:14.161Z,100760.81
2022-12-03T07:26:43.857Z,100770.94
2022-12-03T07:29:14.146Z,100774.66
2022-12-03T07:31:43.952Z,100780.75
2022-12-03T07:34:13.617Z,100776.22
2022-12-03T07:36:44.896Z,100786.69
2022-12-03T07:39:14.560Z,100781.53
2022-12-03T07:41:44.148Z,100783.09
2022-12-03T07:44:15.031Z,100784.69
2022-12-03T07:46:47.906Z,100786.34
2022-12-03T07:49:17.624Z,100790.00
2022-12-03T07:51:54.096Z,100779.09
2022-12-03T07:54:23.844Z,100785.63
2022-12-03T07:56:59.546Z,100790.84
2022-12-03T07:59:30.732Z,100782.75
2022-12-03T08:02:00.270Z,100782.53
2022-12-03T08:04:29.877Z,100785.88
2022-12-03T08:07:00.791Z,100793.75
2022-12-03T08:09:31.452Z,100790.00
2022-12-03T08:12:04.166Z,100790.78
2022-12-03T08:14:34.014Z,100787.44
2022-12-03T08:17:10.965Z,100779.19
2022-12-03T08:19:41.144Z,100783.31
2022-12-03T08:22:14.335Z,100784.06
2022-12-03T08:24:44.085Z,100784.72
2022-12-03T08:27:17.613Z,100784.56
2022-12-03T08:29:47.793Z,100788.06
2022-12-03T08:32:17.394Z,100782.63
2022-12-03T08:34:46.927Z,100777.16
2022-12-03T08:37:19.255Z,100774.59
2022-12-03T08:39:49.598Z,100777.06
2022-12-03T08:42:38.465Z,100776.28
2022-12-03T08:45:27.968Z,100780.81
2022-12-03T08:47:58.117Z,100777.75
2022-12-03T08:50:28.698Z,100779.41
2022-12-03T08:53:02.241Z,100783.78
2022-12-03T08:55:35.278Z,100770.50
2022-12-03T08:58:15.397Z,100777.44
2022-12-03T09:00:45.013Z,100771.19
2022-12-03T09:03:17.089Z,100773.00
2022-12-03T09:05:46.573Z,100772.91
2022-12-03T09:08:17.646Z,100772.13
2022-12-03T09:10:47.343Z,100765.63
2022-12-03T09:13:17.777Z,100766.34
2022-12-03T09:15:47.889Z,100760.19
2022-12-03T09:18:17.596Z,100759.06
2022-12-03T09:20:47.154Z,100756.34
2022-12-03T09:23:17.992Z,100748.47
2022-12-03T09:25:47.513Z,100752.91
2022-12-03T09:28:17.109Z,100751.13
2022-12-03T09:30:46.769Z,100745.66
2022-12-03T09:33:16.174Z,100744.63
2022-12-03T09:35:45.863Z,100750.66
2022-12-03T09:38:15.707Z,100743.44
2022-12-03T09:40:46.596Z,100742.59
2022-12-03T09:43:16.868Z,100742.34
2022-12-03T09:45:46.984Z,100733.00
2022-12-03T09:48:17.487Z,100740.03
2022-12-03T09:50:47.342Z,100739.88
2022-12-03T09:53:18.273Z,100736.09
2022-12-03T09:55:50.536Z,100734.22
2022-12-03T09:58:24.822Z,100726.44
2022-12-03T10:00:54.697Z,100730.19
2022-12-03T10:03:29.866Z,100722.13
2022-12-03T10:05:59.691Z,100726.75
2022-12-03T10:08:32.340Z,100723.31
2022-12-03T10:11:03.515Z,100727.53
2022-12-03T10:13:34.676Z,100726.50
2022-12-03T10:16:04.876Z,100722.75
2022-12-03T10:18:41.216Z,100722.75
2022-12-03T10:21:15.229Z,100715.81
2022-12-03T10:23:48.359Z,100725.59
2022-12-03T10:26:36.998Z,100718.63
2022-12-03T10:29:13.137Z,100713.34
2022-12-03T10:31:42.634Z,100718.63
2022-12-03T10:34:12.692Z,100713.50
2022-12-03T10:36:42.189Z,100709.28
2022-12-03T10:39:13.211Z,100704.56
2022-12-03T10:41:45.011Z,100711.53
2022-12-03T10:44:17.558Z,100713.50
2022-12-03T10:46:47.835Z,100709.88
2022-12-03T10:49:18.641Z,100703.66
2022-12-03T10:51:48.861Z,100710.06
2022-12-03T10:54:20.948Z,100712.41
2022-12-03T10:56:53.708Z,100721.03
2022-12-03T10:59:31.856Z,100721.28
2022-12-03T11:02:01.455Z,100721.03
2022-12-03T11:04:33.355Z,100722.22
2022-12-03T11:07:03.844Z,100718.81
2022-12-03T11:09:34.469Z,100716.75
2022-12-03T11:12:08.417Z,100711.53
2022-12-03T11:14:57.788Z,100708.78
2022-12-03T11:17:47.399Z,100709.56
2022-12-03T11:20:37.770Z,100705.13
2022-12-03T11:23:11.537Z,100711.25
2022-12-03T11:25:50.688Z,100698.34
2022-12-03T11:28:35.728Z,100705.38
2022-12-03T11:31:11.527Z,100705.53
2022-12-03T11:33:41.554Z,100704.75
2022-12-03T11:36:31.685Z,100706.31
2022-12-03T11:39:06.084Z,100714.25
2022-12-03T11:41:36.046Z,100709.75
2022-12-03T11:44:31.889Z,100709.03
2022-12-03T11:47:10.157Z,100709.97
2022-12-03T11:49:46.844Z,100707.41
2022-12-03T11:52:21.470Z,100707.16
2022-12-03T11:54:53.250Z,100704.91
2022-12-03T11:57:31.250Z,100707.41
2022-12-03T12:00:04.398Z,100705.09
2022-12-03T12:02:35.596Z,100703.38
2022-12-03T12:05:18.659Z,100704.16
2022-12-03T12:07:48.834Z,100707.66
2022-12-03T12:10:33.257Z,100707.81
2022-12-03T12:13:03.273Z,100711.50
2022-12-03T12:15:51.377Z,100709.63
2022-12-03T12:18:42.152Z,100709.84
2022-12-03T12:21:30.095Z,100711.56
2022-12-03T12:24:19.886Z,100706.19
2022-12-03T12:26:51.359Z,100712.28
2022-12-03T12:29:21.138Z,100701.84
2022-12-03T12:31:54.040Z,100705.25
2022-12-03T12:34:25.985Z,100704.50
2022-12-03T12:36:56.754Z,100715.25
2022-12-03T12:39:27.084Z,100722.03
2022-12-03T12:41:56.644Z,100708.66
2022-12-03T12:44:26.550Z,100713.97
2022-12-03T12:46:56.538Z,100709.53
2022-12-03T12:49:29.089Z,100710.47
2022-12-03T12:51:58.880Z,100710.72
2022-12-03T12:54:28.397Z,100708.25
2022-12-03T12:56:59.205Z,100710.81
2022-12-03T12:59:29.984Z,100708.00
2022-12-03T13:01:59.482Z,100711.50
2022-12-03T13:04:31.529Z,100715.03
2022-12-03T13:07:01.294Z,100707.16
2022-12-03T13:09:31.014Z,100715.31
2022-12-03T13:12:03.951Z,100718.78
2022-12-03T13:14:36.444Z,100718.53
2022-12-03T13:17:13.993Z,100716.72
2022-12-03T13:19:49.450Z,100716.81
2022-12-03T13:22:22.321Z,100717.69
2022-12-03T13:24:52.657Z,100718.53
2022-12-03T13:27:25.708Z,100719.28
2022-12-03T13:29:56.295Z,100729.91
2022-12-03T13:32:30.847Z,100723.75
2022-12-03T13:35:05.102Z,100734.59
2022-12-03T13:37:34.840Z,100731.25
2022-12-03T13:40:09.487Z,100726.03
2022-12-03T13:42:42.357Z,100726.03
2022-12-03T13:45:38.688Z,100727.91
2022-12-03T13:48:19.277Z,100731.41
2022-12-03T13:50:50.947Z,100727.13
2022-12-03T13:53:22.117Z,100725.41
2022-12-03T13:55:52.939Z,100722.84
2022-12-03T13:58:22.395Z,100727.28
2022-12-03T14:00:52.183Z,100727.13
2022-12-03T14:03:23.343Z,100723.69
2022-12-03T14:05:54.300Z,100722.06
2022-12-03T14:08:23.803Z,100728.25
2022-12-03T14:10:59.934Z,100731.75
2022-12-03T14:13:30.877Z,100729.00
2022-12-03T14:16:01.087Z,100728.84
2022-12-03T14:18:30.717Z,100741.34
2022-12-03T14:21:01.888Z,100738.69
2022-12-03T14:23:31.400Z,100735.25
2022-12-03T14:26:01.437Z,100741.63
2022-12-03T14:28:30.964Z,100732.84
2022-12-03T14:31:00.833Z,100741.50
2022-12-03T14:33:30.344Z,100740.63
2022-12-03T14:36:01.524Z,100745.84
2022-12-03T14:38:31.218Z,100752.13
2022-12-03T14:41:01.071Z,100746.94
2022-12-03T14:43:30.512Z,100751.47
2022-12-03T14:46:00.173Z,100746.94
2022-12-03T14:48:29.963Z,100754.13
2022-12-03T14:50:59.723Z,100753.28
2022-12-03T14:53:30.732Z,100756.63
2022-12-03T14:56:00.289Z,100762.00
2022-12-03T14:58:29.782Z,100762.72
2022-12-03T15:00:59.863Z,100761.75
2022-12-03T15:03:29.473Z,100757.53
2022-12-03T15:06:00.635Z,100754.06
2022-12-03T15:08:31.837Z,100759.44
2022-12-03T15:11:02.861Z,100755.06
2022-12-03T15:13:33.846Z,100755.94
2022-12-03T15:16:03.858Z,100749.84
2022-12-03T15:18:34.626Z,100749.66
2022-12-03T15:21:04.634Z,100748.81
2022-12-03T15:23:35.870Z,100754.97
2022-12-03T15:26:05.415Z,100758.81
2022-12-03T15:28:35.138Z,100756.88
2022-12-03T15:31:04.771Z,100747.09
2022-12-03T15:33:34.347Z,100749.00
2022-12-03T15:36:03.900Z,100754.28
2022-12-03T15:38:34.963Z,100757.72
2022-12-03T15:41:21.017Z,100756.94
2022-12-03T15:43:51.246Z,100752.56
2022-12-03T15:46:21.379Z,100754.28
2022-12-03T15:48:51.046Z,100752.66
2022-12-03T15:51:20.612Z,100759.75
2022-12-03T15:53:51.720Z,100759.84
2022-12-03T15:56:21.590Z,100758.97
2022-12-03T15:58:51.318Z,100754.53
2022-12-03T16:01:21.026Z,100763.19
2022-12-03T16:03:50.828Z,100767.47
2022-12-03T16:06:20.364Z,100765.66
2022-12-03T16:08:51.413Z,100769.13
2022-12-03T16:11:21.179Z,100766.47
2022-12-03T16:13:51.199Z,100769.88
2022-12-03T16:16:21.319Z,100776.13
2022-12-03T16:18:52.262Z,100785.72
2022-12-03T16:21:26.499Z,100780.50
2022-12-03T16:23:58.371Z,100787.69
2022-12-03T16:26:27.937Z,100795.63
2022-12-03T16:28:57.534Z,100792.97
2022-12-03T16:31:27.488Z,100793.06
2022-12-03T16:33:57.353Z,100787.03
2022-12-03T16:36:27.117Z,100790.34
2022-12-03T16:38:58.179Z,100795.31
2022-12-03T16:41:27.783Z,100794.47
2022-12-03T16:43:57.515Z,100790.94
2022-12-03T16:46:27.124Z,100792.09
2022-12-03T16:48:59.099Z,100794.84
2022-12-03T16:51:30.306Z,100796.72
2022-12-03T16:54:01.615Z,100795.78
2022-12-03T16:56:31.082Z,100799.38
2022-12-03T16:59:00.617Z,100796.81
2022-12-03T17:01:30.334Z,100807.34
2022-12-03T17:03:59.950Z,100811.78
2022-12-03T17:06:29.413Z,100812.72
2022-12-03T17:09:02.106Z,100809.97
2022-12-03T17:11:31.779Z,100814.44
2022-12-03T17:14:01.905Z,100816.22
2022-12-03T17:16:32.051Z,100810.91
2022-12-03T17:19:01.837Z,100825.81
2022-12-03T17:21:34.918Z,100822.16
2022-12-03T17:24:06.300Z,100831.88
2022-12-03T17:26:35.798Z,100832.91
2022-12-03T17:29:05.353Z,100830.09
2022-12-03T17:31:41.460Z,100839.31
2022-12-03T17:34:11.663Z,100830.34
2022-12-03T17:36:41.161Z,100841.88
2022-12-03T17:39:12.133Z,100841.72
2022-12-03T17:41:41.883Z,100838.34
2022-12-03T17:44:16.334Z,100840.97
2022-12-03T17:46:49.118Z,100849.69
2022-12-03T17:49:18.998Z,100846.88
2022-12-03T17:51:48.590Z,100845.88
2022-12-03T17:54:19.775Z,100845.00
2022-12-03T17:56:49.499Z,100849.53
2022-12-03T17:59:22.370Z,100851.41
2022-12-03T18:01:52.051Z,100853.19
2022-12-03T18:04:21.857Z,100851.16
2022-12-03T18:06:51.552Z,100848.44
2022-12-03T18:09:22.528Z,100841.47
2022-12-03T18:11:52.811Z,100848.75
2022-12-03T18:14:22.400Z,100846.88
2022-12-03T18:16:51.948Z,100844.47
2022-12-03T18:19:21.578Z,100850.44
2022-12-03T18:21:51.271Z,100844.28
2022-12-03T18:24:22.398Z,100844.28
2022-12-03T18:26:52.490Z,100854.66
2022-12-03T18:29:22.093Z,100851.09
2022-12-03T18:31:51.750Z,100854.75
2022-12-03T18:34:21.504Z,100858.28
2022-12-03T18:36:51.355Z,100853.91
2022-12-03T18:39:25.475Z,100859.97
2022-12-03T18:41:55.287Z,100865.19
2022-12-03T18:44:25.090Z,100860.69
2022-12-03T18:46:55.033Z,100862.63
2022-12-03T18:49:24.869Z,100859.88
2022-12-03T18:51:59.353Z,100869.56
2022-12-03T18:54:30.642Z,100861.06
2022-12-03T18:57:00.991Z,100863.63
2022-12-03T18:59:30.692Z,100863.63
2022-12-03T19:02:00.966Z,100861.69
2022-12-03T19:04:30.696Z,100859.19
2022-12-03T19:07:00.577Z,100865.44
2022-12-03T19:09:31.570Z,100857.56
2022-12-03T19:12:01.974Z,100866.34
2022-12-03T19:14:32.123Z,100866.44
2022-12-03T19:17:02.701Z,100867.41
2022-12-03T19:19:32.339Z,100870.13
2022-12-03T19:22:01.897Z,100862.22
2022-12-03T19:24:32.933Z,100871.97
2022-12-03T19:27:02.612Z,100865.19
2022-12-03T19:29:32.262Z,100864.09
2022-12-03T19:32:02.274Z,100863.34
2022-12-03T19:34:31.873Z,100868.63
2022-12-03T19:37:01.544Z,100860.69
2022-12-03T19:39:33.291Z,100868.31
2022-12-03T19:42:02.899Z,100863.50
2022-12-03T19:44:32.485Z,100859.28
2022-12-03T19:47:02.702Z,100862.88
2022-12-03T19:49:32.776Z,100862.09
2022-12-03T19:52:02.347Z,100861.38
2022-12-03T19:54:33.539Z,100857.00
2022-12-03T19:57:03.491Z,100850.84
2022-12-03T19:59:33.441Z,100862.16
2022-12-03T20:02:02.984Z,100857.56
2022-12-03T20:04:32.893Z,100852.50
2022-12-03T20:07:02.569Z,100861.38
2022-12-03T20:09:33.528Z,100859.56
2022-12-03T20:12:03.911Z,100863.25
2022-12-03T20:14:34.205Z,100864.19
2022-12-03T20:17:04.367Z,100863.19
2022-12-03T20:19:34.276Z,100865.66
2022-12-03T20:22:04.157Z,100865.59
2022-12-03T20:24:35.212Z,100872.06
2022-12-03T20:27:05.163Z,100874.88
2022-12-03T20:29:36.867Z,100873.06
2022-12-03T20:32:07.363Z,100877.59
2022-12-03T20:34:37.390Z,100871.44
2022-12-03T20:37:07.198Z,100875.56
2022-12-03T20:39:38.061Z,100875.47
2022-12-03T20:42:07.924Z,100872.97
2022-12-03T20:44:38.505Z,100874.78
2022-12-03T20:47:08.036Z,100872.97
2022-12-03T20:49:39.088Z,100879.25
2022-12-03T20:52:08.787Z,100874.00
2022-12-03T20:54:40.033Z,100881.00
2022-12-03T20:57:09.564Z,100881.09
2022-12-03T20:59:39.110Z,100878.53
2022-12-03T21:02:08.746Z,100879.53
2022-12-03T21:04:38.374Z,100873.59
2022-12-03T21:07:08.168Z,100881.56
2022-12-03T21:09:37.770Z,100881.63
2022-12-03T21:12:09.327Z,100884.53
2022-12-03T21:14:39.509Z,100887.16
2022-12-03T21:17:09.988Z,100885.94
2022-12-03T21:19:39.654Z,100886.13
2022-12-03T21:22:09.256Z,100881.63
2022-12-03T21:24:38.929Z,100883.50
2022-12-03T21:27:09.901Z,100886.78
2022-12-03T21:29:39.619Z,100883.28
2022-12-03T21:32:09.283Z,100889.59
2022-12-03T21:34:38.972Z,100889.75
2022-12-03T21:37:08.429Z,100896.66
2022-12-03T21:39:38.632Z,100890.50
2022-12-03T21:42:34.800Z,100888.88
2022-12-03T21:44:59.106Z,100892.41
2022-12-03T21:47:33.470Z,100890.75
2022-12-03T21:50:07.399Z,100890.97
2022-12-03T21:52:36.907Z,100892.75
2022-12-03T21:55:07.429Z,100879.56
2022-12-03T21:57:38.422Z,100894.56
2022-12-03T22:00:09.121Z,100889.81
2022-12-03T22:02:39.291Z,100890.59
2022-12-03T22:05:09.573Z,100903.84
2022-12-03T22:07:39.983Z,100897.91
2022-12-03T22:10:10.782Z,100893.25
2022-12-03T22:12:42.337Z,100896.97
2022-12-03T22:15:18.401Z,100896.13
2022-12-03T22:17:49.031Z,100890.09
2022-12-03T22:20:18.836Z,100888.94
2022-12-03T22:22:48.523Z,100896.91
2022-12-03T22:25:18.508Z,100894.69
2022-12-03T22:27:49.409Z,100883.94
2022-12-03T22:30:19.028Z,100887.69
2022-12-03T22:32:48.558Z,100880.53
2022-12-03T22:35:19.263Z,100880.66
2022-12-03T22:37:48.832Z,100880.59
2022-12-03T22:40:18.446Z,100879.72
2022-12-03T22:42:51.082Z,100880.28
2022-12-03T22:45:20.816Z,100884.03
2022-12-03T22:47:50.374Z,100885.69
2022-12-03T22:50:20.102Z,100889.25
2022-12-03T22:52:49.609Z,100880.16
2022-12-03T22:55:19.244Z,100875.75
2022-12-03T22:57:50.215Z,100878.06
2022-12-03T23:00:28.946Z,100870.63
2022-12-03T23:02:58.425Z,100872.66
2022-12-03T23:05:31.321Z,100880.03
2022-12-03T23:08:01.011Z,100881.38
2022-12-03T23:10:33.984Z,100876.66
2022-12-03T23:13:05.932Z,100882.38
2022-12-03T23:15:36.069Z,100881.09
2022-12-03T23:18:06.021Z,100880.19
2022-12-03T23:20:35.831Z,100880.19
2022-12-03T23:23:05.369Z,100876.47
2022-12-03T23:25:34.919Z,100869.66
2022-12-03T23:28:06.199Z,100870.44
2022-12-03T23:30:36.271Z,100869.34
2022-12-03T23:33:06.729Z,100873.06
2022-12-03T23:35:36.395Z,100865.84
2022-12-03T23:38:06.031Z,100864.28
2022-12-03T23:40:35.524Z,100861.41
2022-12-03T23:43:06.401Z,100864.34
2022-12-03T23:45:35.874Z,100872.63
2022-12-03T23:48:05.410Z,100869.03
2022-12-03T23:50:35.668Z,100866.41
2022-12-03T23:53:05.173Z,100866.47
2022-12-03T23:55:34.816Z,100873.19
2022-12-03T23:58:04.322Z,100865.31
